Time;durP1;ratioP1;P1;durP2;ratioP2;P2;SDS_P1;SDS_P2;PMS_P1;PMS_P2;Temp;Humidity;BMP_temperature;BMP_pressure;BME280_temperature;BME280_humidity;BME280_pressure;Samples;Min_cycle;Max_cycle;Signal;HPM_P1;HPM_P2
2022/03/02 00:01:54;;;;;;;12.17;7.63;;;-0.10;99.90;;;;;;5020010;28;20181;-67
2022/03/02 00:04:20;;;;;;;15.17;8.37;;;-0.10;99.90;;;;;;5019989;28;20637;-66
2022/03/02 00:06:45;;;;;;;14.57;7.70;;;-0.10;99.90;;;;;;5018678;28;20586;-68
2022/03/02 00:09:11;;;;;;;13.80;7.80;;;-0.20;99.90;;;;;;5018199;28;20173;-66
2022/03/02 00:11:38;;;;;;;15.77;8.53;;;-0.10;99.90;;;;;;5018050;28;20579;-67
2022/03/02 00:14:05;;;;;;;17.40;8.10;;;-0.10;99.90;;;;;;5017237;28;20158;-66
2022/03/02 00:16:34;;;;;;;15.83;8.63;;;-0.20;99.90;;;;;;5018045;28;20158;-66
2022/03/02 00:19:02;;;;;;;14.17;7.97;;;-0.20;99.90;;;;;;5018097;28;20554;-66
2022/03/02 00:21:27;;;;;;;14.60;7.97;;;-0.30;99.90;;;;;;5017159;28;20599;-66
2022/03/02 00:23:53;;;;;;;13.70;7.83;;;-0.30;99.90;;;;;;5017180;28;20185;-68
2022/03/02 00:26:19;;;;;;;13.67;8.03;;;-0.30;99.90;;;;;;5016980;28;20235;-67
2022/03/02 00:28:45;;;;;;;15.00;8.07;;;-0.30;99.90;;;;;;5017232;28;20173;-65
2022/03/02 00:31:11;;;;;;;14.77;8.30;;;-0.20;99.90;;;;;;5016739;28;20201;-65
2022/03/02 00:33:37;;;;;;;15.67;7.80;;;-0.20;99.90;;;;;;5017017;28;20166;-67
2022/03/02 00:36:03;;;;;;;15.77;8.03;;;-0.10;99.90;;;;;;5018373;28;20170;-68
2022/03/02 00:38:29;;;;;;;16.47;7.97;;;-0.20;99.90;;;;;;5018400;28;20316;-66
2022/03/02 00:40:55;;;;;;;12.80;8.27;;;-0.30;99.90;;;;;;5017773;28;20600;-64
2022/03/02 00:43:21;;;;;;;13.50;8.13;;;-0.30;99.90;;;;;;5017237;28;20166;-65
2022/03/02 00:45:47;;;;;;;16.00;8.53;;;-0.30;99.90;;;;;;5017738;28;20169;-65
2022/03/02 00:48:13;;;;;;;15.80;8.27;;;-0.40;99.90;;;;;;5020848;28;20181;-67
2022/03/02 00:50:40;;;;;;;16.40;7.87;;;-0.30;99.90;;;;;;5021167;28;20255;-67
2022/03/02 00:53:07;;;;;;;16.30;8.30;;;-0.40;99.90;;;;;;5020585;28;20249;-66
2022/03/02 00:55:34;;;;;;;14.23;8.27;;;-0.40;99.90;;;;;;5019507;28;20214;-67
2022/03/02 00:58:00;;;;;;;14.17;7.87;;;-0.30;99.90;;;;;;5021305;28;20153;-66
2022/03/02 01:00:26;;;;;;;14.73;8.73;;;-0.30;99.90;;;;;;5017297;28;20242;-68
2022/03/02 01:02:52;;;;;;;14.10;7.90;;;-0.50;99.90;;;;;;5015510;28;20161;-66
2022/03/02 01:05:18;;;;;;;16.17;8.10;;;-0.60;99.90;;;;;;5016382;28;20180;-65
2022/03/02 01:07:44;;;;;;;15.27;8.70;;;-0.60;99.90;;;;;;5016259;28;20172;-66
2022/03/02 01:10:11;;;;;;;17.73;8.33;;;-0.70;99.90;;;;;;5016554;28;20194;-67
2022/03/02 01:12:37;;;;;;;17.97;7.80;;;-0.70;99.90;;;;;;5016269;28;20304;-67
2022/03/02 01:15:04;;;;;;;15.33;8.13;;;-0.70;99.90;;;;;;5016028;28;20593;-67
2022/03/02 01:17:30;;;;;;;11.63;7.73;;;-0.70;99.90;;;;;;5015664;28;20180;-67
2022/03/02 01:19:56;;;;;;;14.83;8.77;;;-0.70;99.90;;;;;;5015953;28;20158;-65
2022/03/02 01:22:22;;;;;;;13.27;8.10;;;-0.60;99.90;;;;;;5015935;28;20163;-65
2022/03/02 01:24:47;;;;;;;13.93;7.80;;;-0.60;99.90;;;;;;5016212;28;20182;-66
2022/03/02 01:27:13;;;;;;;12.97;7.53;;;-0.70;99.90;;;;;;5015075;28;20236;-67
2022/03/02 01:29:39;;;;;;;14.93;8.13;;;-0.80;99.90;;;;;;5016300;28;20269;-65
2022/03/02 01:32:07;;;;;;;15.67;8.17;;;-0.90;99.90;;;;;;5015560;28;20239;-65
2022/03/02 01:34:33;;;;;;;13.17;7.73;;;-0.90;99.90;;;;;;5015752;28;20484;-64
2022/03/02 01:36:59;;;;;;;11.00;7.70;;;-0.90;99.90;;;;;;5015556;28;20163;-65
2022/03/02 01:39:25;;;;;;;12.90;7.47;;;-0.90;99.90;;;;;;5015616;28;20177;-66
2022/03/02 01:41:51;;;;;;;14.40;8.33;;;-0.80;99.90;;;;;;5015365;28;20248;-66
2022/03/02 01:44:17;;;;;;;15.37;7.90;;;-0.90;99.90;;;;;;5015159;28;20200;-66
2022/03/02 01:46:43;;;;;;;13.20;8.27;;;-0.90;99.90;;;;;;5015316;28;20206;-67
2022/03/02 01:49:09;;;;;;;17.23;9.27;;;-0.90;99.90;;;;;;4998426;28;20186;-66
2022/03/02 01:51:35;;;;;;;15.13;8.53;;;-0.90;99.90;;;;;;5015147;28;20552;-64
2022/03/02 01:54:01;;;;;;;12.57;7.93;;;-0.90;99.90;;;;;;5015390;28;20595;-67
2022/03/02 01:56:27;;;;;;;19.30;8.47;;;-0.90;99.90;;;;;;5015123;28;20205;-65
2022/03/02 01:58:53;;;;;;;12.03;7.80;;;-0.90;99.90;;;;;;5015365;28;20598;-66
2022/03/02 02:01:19;;;;;;;15.70;8.90;;;-0.90;99.90;;;;;;5015154;28;20169;-67
2022/03/02 02:03:45;;;;;;;15.63;9.33;;;-1.00;99.90;;;;;;5015042;28;20190;-67
2022/03/02 02:06:11;;;;;;;16.03;8.93;;;-1.00;99.90;;;;;;5014959;28;20231;-65
2022/03/02 02:08:36;;;;;;;16.00;8.37;;;-1.00;99.90;;;;;;4997472;28;20195;-66
2022/03/02 02:11:03;;;;;;;15.77;9.53;;;-1.10;99.90;;;;;;5014944;28;20213;-65
2022/03/02 02:13:34;;;;;;;15.17;9.27;;;-1.10;99.90;;;;;;5013997;28;20241;-69
2022/03/02 02:16:01;;;;;;;15.93;9.23;;;-1.30;99.90;;;;;;4997793;28;20178;-67
2022/03/02 02:18:27;;;;;;;15.00;9.30;;;-1.20;99.90;;;;;;4996918;28;20612;-66
2022/03/02 02:20:53;;;;;;;17.07;9.83;;;-1.20;99.90;;;;;;5014990;28;20174;-65
2022/03/02 02:23:19;;;;;;;17.80;8.97;;;-1.20;99.90;;;;;;5014144;28;20583;-64
2022/03/02 02:25:45;;;;;;;19.07;8.90;;;-1.20;99.90;;;;;;5014526;28;20271;-66
2022/03/02 02:28:15;;;;;;;13.83;8.40;;;-1.20;99.90;;;;;;5014583;28;20163;-65
2022/03/02 02:30:42;;;;;;;16.27;8.97;;;-1.20;99.90;;;;;;5014936;28;20736;-65
2022/03/02 02:33:08;;;;;;;14.97;9.90;;;-1.30;99.90;;;;;;5014667;28;20173;-66
2022/03/02 02:35:34;;;;;;;19.10;8.93;;;-1.30;99.90;;;;;;5014640;28;20158;-65
2022/03/02 02:37:59;;;;;;;23.17;8.90;;;-1.30;99.90;;;;;;5015174;28;20166;-66
2022/03/02 02:40:26;;;;;;;16.80;9.17;;;-1.30;99.90;;;;;;4997270;28;20183;-65
2022/03/02 02:42:53;;;;;;;21.23;10.40;;;-1.30;99.90;;;;;;5015138;28;20170;-66
2022/03/02 02:45:20;;;;;;;18.33;10.77;;;-1.40;99.90;;;;;;5015314;28;20156;-66
2022/03/02 02:47:49;;;;;;;18.27;10.37;;;-1.60;99.90;;;;;;5014705;28;20203;-66
2022/03/02 02:50:23;;;;;;;19.70;10.23;;;-1.60;99.90;;;;;;5015183;28;20201;-67
2022/03/02 02:52:50;;;;;;;16.30;9.57;;;-1.60;99.90;;;;;;5016175;28;20227;-67
2022/03/02 02:55:17;;;;;;;23.40;10.53;;;-1.70;99.90;;;;;;5015955;28;20162;-66
2022/03/02 02:57:43;;;;;;;15.10;9.57;;;-1.60;99.90;;;;;;5015708;28;20478;-67
2022/03/02 03:00:12;;;;;;;18.77;10.03;;;-1.50;99.90;;;;;;5016037;28;20162;-67
2022/03/02 03:02:39;;;;;;;16.03;9.30;;;-1.50;99.90;;;;;;5015069;28;20177;-65
2022/03/02 03:05:09;;;;;;;16.87;9.30;;;-1.50;99.90;;;;;;5017042;28;20171;-65
2022/03/02 03:07:35;;;;;;;15.43;9.40;;;-1.60;99.90;;;;;;5015869;28;20586;-66
2022/03/02 03:10:00;;;;;;;16.37;8.97;;;-1.60;99.90;;;;;;5015660;28;20177;-66
2022/03/02 03:12:26;;;;;;;13.10;8.60;;;-1.60;99.90;;;;;;5015216;28;20511;-65
2022/03/02 03:14:52;;;;;;;18.90;8.77;;;-1.60;99.90;;;;;;5014561;28;20158;-67
2022/03/02 03:17:18;;;;;;;16.03;9.70;;;-1.60;99.90;;;;;;5015085;28;20260;-65
2022/03/02 03:19:43;;;;;;;18.63;9.23;;;-1.60;99.90;;;;;;4997536;28;20192;-66
2022/03/02 03:22:09;;;;;;;16.47;9.33;;;-1.60;99.90;;;;;;5014259;28;20207;-65
2022/03/02 03:24:35;;;;;;;18.57;9.13;;;-1.60;99.90;;;;;;5014111;28;20259;-65
2022/03/02 03:27:00;;;;;;;16.70;9.37;;;-1.60;99.90;;;;;;5015317;28;20236;-65
2022/03/02 03:29:29;;;;;;;15.23;9.47;;;-1.40;99.90;;;;;;5013951;28;20162;-68
2022/03/02 03:31:54;;;;;;;16.50;8.90;;;-1.50;99.90;;;;;;5014664;28;20264;-67
2022/03/02 03:34:20;;;;;;;17.77;9.63;;;-1.50;99.90;;;;;;5015867;28;20169;-68
2022/03/02 03:36:45;;;;;;;16.53;9.23;;;-1.50;99.90;;;;;;5016914;28;20170;-66
2022/03/02 03:39:11;;;;;;;16.17;9.20;;;-1.50;99.90;;;;;;5018608;28;20167;-66
2022/03/02 03:41:36;;;;;;;14.17;8.67;;;-1.50;99.90;;;;;;5020352;28;20623;-69
2022/03/02 03:44:02;;;;;;;14.90;8.67;;;-1.50;99.90;;;;;;5021253;28;20201;-65
2022/03/02 03:46:28;;;;;;;17.57;9.77;;;-1.50;99.90;;;;;;5017580;28;20675;-67
2022/03/02 03:48:53;;;;;;;17.50;9.53;;;-1.50;99.90;;;;;;5016823;28;20385;-69
2022/03/02 03:51:19;;;;;;;14.60;8.50;;;-1.60;99.90;;;;;;5014268;28;20205;-69
2022/03/02 03:53:45;;;;;;;16.87;9.00;;;-1.50;99.90;;;;;;5013516;28;20198;-66
2022/03/02 03:56:11;;;;;;;14.90;8.90;;;-1.50;99.90;;;;;;5013925;28;20555;-65
2022/03/02 03:58:37;;;;;;;13.63;8.90;;;-1.50;99.90;;;;;;5013610;28;20161;-68
2022/03/02 04:01:02;;;;;;;16.73;9.10;;;-1.50;99.90;;;;;;5013040;28;20165;-66
2022/03/02 04:03:28;;;;;;;16.10;9.10;;;-1.60;99.90;;;;;;5016085;28;20245;-67
2022/03/02 04:05:54;;;;;;;21.80;9.23;;;-1.40;99.90;;;;;;5017826;28;20174;-67
2022/03/02 04:08:20;;;;;;;19.23;10.80;;;-1.50;99.90;;;;;;5019209;28;20181;-65
2022/03/02 04:10:46;;;;;;;17.00;9.97;;;-1.60;99.90;;;;;;5016470;28;20200;-67
2022/03/02 04:13:12;;;;;;;15.07;9.57;;;-1.60;99.90;;;;;;5015778;28;20166;-65
2022/03/02 04:15:38;;;;;;;16.53;9.77;;;-1.60;99.90;;;;;;5015580;28;20220;-66
2022/03/02 04:18:06;;;;;;;17.43;9.87;;;-1.60;99.90;;;;;;5015738;28;20218;-67
2022/03/02 04:20:33;;;;;;;17.07;9.97;;;-1.60;99.90;;;;;;5013858;28;20166;-67
2022/03/02 04:22:59;;;;;;;17.80;9.30;;;-1.50;99.90;;;;;;5013273;28;20621;-66
2022/03/02 04:25:24;;;;;;;15.83;9.70;;;-1.60;99.90;;;;;;5014018;28;20264;-66
2022/03/02 04:27:50;;;;;;;19.80;9.97;;;-1.60;99.90;;;;;;5013711;28;20619;-67
2022/03/02 04:30:15;;;;;;;16.27;9.23;;;-1.60;99.90;;;;;;5013028;28;20591;-68
2022/03/02 04:32:41;;;;;;;17.23;9.03;;;-1.60;99.90;;;;;;5013303;28;20208;-68
2022/03/02 04:35:09;;;;;;;17.90;10.43;;;-1.70;99.90;;;;;;5013089;28;20236;-68
2022/03/02 04:37:35;;;;;;;15.90;9.70;;;-1.80;99.90;;;;;;5014980;28;20620;-69
2022/03/02 04:40:01;;;;;;;16.73;9.70;;;-1.60;99.90;;;;;;5016582;28;20175;-66
2022/03/02 04:42:26;;;;;;;16.70;9.87;;;-1.80;99.90;;;;;;5015870;28;20209;-68
2022/03/02 04:44:52;;;;;;;17.87;8.87;;;-1.70;99.90;;;;;;5016603;28;20221;-67
2022/03/02 04:47:17;;;;;;;21.40;11.07;;;-1.70;99.90;;;;;;5016511;28;20166;-69
2022/03/02 04:49:43;;;;;;;20.80;11.30;;;-1.60;99.90;;;;;;5016573;28;20224;-66
2022/03/02 04:52:09;;;;;;;20.27;12.20;;;-1.50;99.90;;;;;;5016320;28;20201;-66
2022/03/02 04:57:18;;;;;;;18.23;11.37;;;-1.60;99.90;;;;;;5016343;28;20157;-65
2022/03/02 04:59:45;;;;;;;18.07;10.60;;;-1.50;99.90;;;;;;5016574;28;20505;-66
2022/03/02 05:02:11;;;;;;;18.90;10.77;;;-1.50;99.90;;;;;;5015713;28;20498;-66
2022/03/02 05:04:36;;;;;;;16.83;10.27;;;-1.50;99.90;;;;;;5016080;28;20169;-66
2022/03/02 05:07:02;;;;;;;18.20;10.00;;;-1.40;99.90;;;;;;5016442;28;20162;-66
2022/03/02 05:09:28;;;;;;;17.13;10.57;;;-1.60;99.90;;;;;;5016155;28;20172;-67
2022/03/02 05:11:54;;;;;;;17.97;10.33;;;-1.60;99.90;;;;;;5015710;28;20206;-65
2022/03/02 05:14:20;;;;;;;17.13;10.70;;;-1.50;99.90;;;;;;5016515;28;20167;-65
2022/03/02 05:16:45;;;;;;;19.13;9.97;;;-1.50;99.90;;;;;;5016567;28;20164;-66
2022/03/02 05:19:11;;;;;;;18.90;10.20;;;-1.50;99.90;;;;;;5015886;28;20181;-66
2022/03/02 05:21:36;;;;;;;19.67;10.40;;;-1.50;99.90;;;;;;5015622;28;20196;-66
2022/03/02 05:24:02;;;;;;;26.97;10.20;;;-1.50;99.90;;;;;;5015991;28;20246;-66
2022/03/02 05:26:28;;;;;;;19.17;9.53;;;-1.50;99.90;;;;;;5016271;28;20249;-66
2022/03/02 05:28:54;;;;;;;16.83;10.63;;;-1.50;99.90;;;;;;5015860;28;20168;-66
2022/03/02 05:31:21;;;;;;;18.77;11.10;;;-1.50;99.90;;;;;;5015891;28;20201;-67
2022/03/02 05:33:47;;;;;;;24.30;11.80;;;-1.60;99.90;;;;;;5015694;28;20185;-66
2022/03/02 05:36:13;;;;;;;28.07;13.90;;;-1.70;99.90;;;;;;5015863;28;20200;-66
2022/03/02 05:38:38;;;;;;;26.30;13.60;;;-1.70;99.90;;;;;;5015819;28;20158;-65
2022/03/02 05:41:04;;;;;;;20.87;11.77;;;-1.80;99.90;;;;;;5015860;28;20616;-65
2022/03/02 05:43:30;;;;;;;17.40;10.03;;;-1.80;99.90;;;;;;5015801;28;20645;-66
2022/03/02 05:45:55;;;;;;;20.33;11.03;;;-1.80;99.90;;;;;;5016069;28;20165;-65
2022/03/02 05:48:21;;;;;;;25.17;11.23;;;-1.70;99.90;;;;;;5015382;28;20299;-65
2022/03/02 05:50:46;;;;;;;18.00;10.27;;;-1.70;99.90;;;;;;5014415;28;20214;-65
2022/03/02 05:53:12;;;;;;;18.67;11.30;;;-1.60;99.90;;;;;;5015702;28;20177;-65
2022/03/02 05:55:37;;;;;;;22.00;10.93;;;-1.60;99.90;;;;;;5016192;28;20169;-65
2022/03/02 05:58:03;;;;;;;17.27;10.93;;;-1.70;99.90;;;;;;5014902;28;20206;-65
2022/03/02 06:00:29;;;;;;;17.60;10.20;;;-1.60;99.90;;;;;;5015088;28;20162;-68
2022/03/02 06:02:54;;;;;;;17.13;10.63;;;-1.50;99.90;;;;;;5015305;28;20487;-64
2022/03/02 06:05:20;;;;;;;17.20;9.83;;;-1.60;99.90;;;;;;5013963;28;20173;-65
2022/03/02 06:07:45;;;;;;;20.10;11.07;;;-1.60;99.90;;;;;;5015169;28;20172;-66
2022/03/02 06:10:13;;;;;;;16.03;10.13;;;-1.60;99.90;;;;;;5015167;28;20489;-65
2022/03/02 06:12:39;;;;;;;18.27;10.73;;;-1.40;99.90;;;;;;5015190;28;20162;-64
2022/03/02 06:15:07;;;;;;;18.87;10.90;;;-1.40;99.90;;;;;;5015385;28;20554;-66
2022/03/02 06:17:33;;;;;;;20.80;12.33;;;-1.40;99.90;;;;;;5022287;28;20149;-65
2022/03/02 06:19:59;;;;;;;24.27;13.47;;;-1.40;99.90;;;;;;5023142;28;20161;-64
2022/03/02 06:22:25;;;;;;;21.63;11.90;;;-1.20;99.90;;;;;;5020951;28;20158;-65
2022/03/02 06:24:52;;;;;;;20.23;11.97;;;-1.30;99.90;;;;;;5020359;28;20177;-67
2022/03/02 06:27:20;;;;;;;20.40;11.37;;;-1.40;99.90;;;;;;5023621;28;20229;-65
2022/03/02 06:29:46;;;;;;;21.60;11.40;;;-1.30;99.90;;;;;;5026198;28;20239;-66
2022/03/02 06:32:11;;;;;;;18.70;11.40;;;-1.30;99.90;;;;;;5024086;28;20213;-66
2022/03/02 06:34:38;;;;;;;20.83;11.47;;;-1.30;99.90;;;;;;5015393;28;20164;-65
2022/03/02 06:37:05;;;;;;;23.77;11.70;;;-1.30;99.90;;;;;;5015514;28;20171;-65
2022/03/02 06:39:31;;;;;;;19.20;11.90;;;-1.20;99.90;;;;;;5014760;28;20305;-68
2022/03/02 06:42:16;;;;;;;21.77;11.00;;;-1.20;99.90;;;;;;5015436;28;20181;-65
2022/03/02 06:45:04;;;;;;;22.27;10.57;;;-1.00;99.90;;;;;;5015128;28;20174;-65
2022/03/02 06:47:35;;;;;;;22.57;11.80;;;-0.90;99.90;;;;;;5014898;28;20201;-64
2022/03/02 06:50:12;;;;;;;23.93;12.20;;;-0.80;99.90;;;;;;5014592;28;20162;-66
2022/03/02 06:52:41;;;;;;;20.13;10.87;;;-0.80;99.90;;;;;;5014886;28;20166;-65
2022/03/02 06:55:10;;;;;;;20.30;11.20;;;-0.90;99.90;;;;;;5014731;28;20626;-66
2022/03/02 06:57:38;;;;;;;20.83;10.90;;;-0.80;99.90;;;;;;5015116;28;20172;-66
2022/03/02 07:00:16;;;;;;;22.23;11.43;;;-0.60;99.90;;;;;;5014110;28;20509;-65
2022/03/02 07:02:49;;;;;;;18.90;11.57;;;-0.60;99.90;;;;;;5014220;28;20161;-65
2022/03/02 07:05:16;;;;;;;24.30;11.20;;;-0.60;99.90;;;;;;5014380;28;20166;-66
2022/03/02 07:07:42;;;;;;;18.90;10.77;;;-0.80;99.90;;;;;;5014362;28;20174;-66
2022/03/02 07:10:09;;;;;;;20.47;10.37;;;-0.60;99.90;;;;;;5014024;28;20468;-68
2022/03/02 07:12:36;;;;;;;20.60;11.80;;;-0.70;99.90;;;;;;5014739;28;20165;-65
2022/03/02 07:15:04;;;;;;;23.10;11.63;;;-0.70;99.90;;;;;;5014881;28;20181;-65
2022/03/02 07:17:32;;;;;;;23.30;11.47;;;-0.50;99.90;;;;;;5014686;28;20172;-66
2022/03/02 07:19:58;;;;;;;23.17;11.23;;;-0.50;99.90;;;;;;5015006;28;20589;-66
2022/03/02 07:22:31;;;;;;;25.33;12.70;;;-0.40;99.90;;;;;;5015101;28;20172;-66
2022/03/02 07:25:07;;;;;;;21.60;11.80;;;-0.40;99.90;;;;;;5014383;28;20177;-65
2022/03/02 07:27:38;;;;;;;28.17;12.90;;;-0.70;99.90;;;;;;5012887;28;20193;-64
2022/03/02 07:30:06;;;;;;;21.87;11.67;;;-0.60;99.90;;;;;;5014034;28;20158;-63
2022/03/02 07:32:33;;;;;;;24.47;11.83;;;-0.40;99.90;;;;;;5012757;28;20711;-65
2022/03/02 07:35:02;;;;;;;19.87;10.90;;;-0.40;99.90;;;;;;5014350;28;20169;-66
2022/03/02 07:37:29;;;;;;;20.63;11.50;;;-0.30;99.90;;;;;;5013878;28;20198;-67
2022/03/02 07:39:55;;;;;;;20.63;10.97;;;-0.30;99.90;;;;;;5014463;28;20168;-64
2022/03/02 07:42:21;;;;;;;17.93;10.40;;;-0.30;99.90;;;;;;5014190;28;20249;-65
2022/03/02 07:44:49;;;;;;;24.60;11.77;;;-0.30;99.90;;;;;;5014187;28;20311;-66
2022/03/02 07:47:15;;;;;;;25.50;11.53;;;-0.30;99.90;;;;;;5014205;28;20204;-65
2022/03/02 07:49:41;;;;;;;28.93;13.63;;;-0.30;99.90;;;;;;5013921;28;20176;-66
2022/03/02 07:52:09;;;;;;;26.60;11.97;;;-0.20;99.90;;;;;;5014708;28;20543;-65
2022/03/02 07:54:37;;;;;;;19.07;10.63;;;-0.10;99.90;;;;;;5015249;28;20616;-66
2022/03/02 07:57:04;;;;;;;25.67;12.20;;;-0.20;99.90;;;;;;5013859;28;20177;-66
2022/03/02 07:59:36;;;;;;;17.93;11.43;;;0.00;99.90;;;;;;5014182;28;20189;-65
2022/03/02 08:02:03;;;;;;;24.77;11.87;;;-0.20;99.90;;;;;;5013601;28;20267;-64
2022/03/02 08:04:31;;;;;;;26.37;14.17;;;0.00;99.90;;;;;;5013279;28;20162;-66
2022/03/02 08:06:56;;;;;;;27.10;13.87;;;0.00;99.90;;;;;;5016207;28;20240;-65
2022/03/02 08:09:22;;;;;;;22.13;13.67;;;0.00;99.90;;;;;;5019730;28;20164;-66
2022/03/02 08:11:47;;;;;;;23.13;12.70;;;0.00;99.90;;;;;;5021768;28;20236;-66
2022/03/02 08:14:13;;;;;;;23.03;12.50;;;0.10;99.90;;;;;;5021153;28;20612;-67
2022/03/02 08:16:39;;;;;;;21.83;11.60;;;0.10;99.90;;;;;;5016215;28;20212;-65
2022/03/02 08:19:05;;;;;;;21.20;11.73;;;0.20;99.90;;;;;;5017503;28;20237;-66
2022/03/02 08:21:33;;;;;;;19.23;10.63;;;0.40;99.90;;;;;;5017454;28;20170;-68
2022/03/02 08:24:02;;;;;;;23.07;11.63;;;0.40;99.90;;;;;;4999658;28;20227;-65
2022/03/02 08:26:33;;;;;;;25.60;12.00;;;0.50;99.90;;;;;;5017592;28;20241;-66
2022/03/02 08:29:03;;;;;;;25.57;12.67;;;0.80;99.90;;;;;;5017574;28;20161;-65
2022/03/02 08:31:30;;;;;;;24.43;12.40;;;0.90;99.90;;;;;;5017416;28;20244;-66
2022/03/02 08:33:57;;;;;;;25.43;11.27;;;1.00;99.90;;;;;;5017823;28;20158;-64
2022/03/02 08:36:24;;;;;;;24.97;10.60;;;1.20;99.90;;;;;;5017108;28;20668;-65
2022/03/02 08:38:51;;;;;;;20.17;12.10;;;1.40;99.90;;;;;;4999919;28;20516;-64
2022/03/02 08:41:19;;;;;;;18.07;10.83;;;1.40;99.90;;;;;;5017052;28;20172;-64
2022/03/02 08:43:47;;;;;;;21.60;11.00;;;1.50;99.90;;;;;;5017657;28;20224;-66
2022/03/02 08:46:13;;;;;;;20.80;11.53;;;1.50;99.90;;;;;;5017211;28;20161;-65
2022/03/02 08:48:40;;;;;;;21.67;12.60;;;1.60;99.90;;;;;;5017353;28;20561;-65
2022/03/02 08:51:07;;;;;;;19.40;10.10;;;1.70;99.90;;;;;;5017227;28;20578;-65
2022/03/02 08:53:33;;;;;;;16.90;9.73;;;1.60;99.90;;;;;;5017691;28;20574;-66
2022/03/02 08:56:03;;;;;;;17.60;10.60;;;1.70;99.90;;;;;;5017103;28;20169;-65
2022/03/02 08:58:29;;;;;;;17.57;10.53;;;1.80;99.90;;;;;;5017123;28;20219;-66
2022/03/02 09:00:59;;;;;;;22.57;11.23;;;1.90;99.90;;;;;;4999781;28;20337;-64
2022/03/02 09:03:25;;;;;;;19.47;10.40;;;1.90;99.90;;;;;;5017067;28;20176;-65
2022/03/02 09:05:52;;;;;;;18.77;10.37;;;1.90;99.90;;;;;;5016274;28;20161;-66
2022/03/02 09:08:18;;;;;;;17.53;8.53;;;2.10;99.90;;;;;;5017028;28;20173;-66
2022/03/02 09:10:44;;;;;;;20.30;10.93;;;2.10;99.90;;;;;;5016515;28;20205;-66
2022/03/02 09:13:11;;;;;;;19.90;12.03;;;2.10;99.90;;;;;;5017623;28;20598;-65
2022/03/02 09:15:37;;;;;;;17.23;11.23;;;2.40;99.90;;;;;;5016912;28;20606;-66
2022/03/02 09:18:07;;;;;;;16.33;9.13;;;2.40;99.90;;;;;;5017122;28;20162;-64
2022/03/02 09:20:33;;;;;;;18.47;11.30;;;2.50;99.90;;;;;;5010413;28;20659;-65
2022/03/02 09:23:04;;;;;;;18.27;10.57;;;2.50;99.90;;;;;;4996996;28;20241;-65
2022/03/02 09:25:31;;;;;;;17.90;10.10;;;2.60;99.90;;;;;;4997722;28;20273;-67
2022/03/02 09:27:57;;;;;;;16.77;10.10;;;2.70;99.90;;;;;;4997241;28;20159;-66
2022/03/02 09:30:23;;;;;;;21.63;9.73;;;2.60;99.90;;;;;;4996732;28;20570;-66
2022/03/02 09:32:53;;;;;;;17.30;10.50;;;2.80;99.90;;;;;;4996782;28;20241;-67
2022/03/02 09:35:21;;;;;;;26.40;11.53;;;2.80;99.90;;;;;;4997042;28;20197;-65
2022/03/02 09:37:49;;;;;;;17.20;8.33;;;3.20;99.90;;;;;;4996962;28;20158;-65
2022/03/02 09:40:26;;;;;;;18.03;8.13;;;3.10;99.90;;;;;;4996601;28;20181;-64
2022/03/02 09:42:54;;;;;;;15.13;8.53;;;3.00;99.90;;;;;;4996647;28;20160;-64
2022/03/02 09:45:21;;;;;;;15.80;8.60;;;3.10;99.90;;;;;;4996363;28;20530;-66
2022/03/02 09:47:52;;;;;;;13.97;8.03;;;3.30;99.90;;;;;;4996533;28;20168;-65
2022/03/02 09:50:20;;;;;;;17.43;9.00;;;3.30;99.90;;;;;;4996552;28;20166;-65
2022/03/02 09:52:47;;;;;;;16.37;8.97;;;3.50;99.90;;;;;;4996780;28;20163;-66
2022/03/02 09:55:16;;;;;;;15.90;8.77;;;3.60;99.90;;;;;;4996249;28;20205;-64
2022/03/02 09:57:44;;;;;;;13.13;8.30;;;3.60;99.90;;;;;;4996318;28;20154;-66
2022/03/02 10:00:11;;;;;;;12.97;7.90;;;3.80;99.90;;;;;;4996844;28;20164;-65
2022/03/02 10:02:46;;;;;;;14.97;7.93;;;3.80;99.90;;;;;;4995660;28;20582;-65
2022/03/02 10:05:18;;;;;;;16.03;8.70;;;3.90;99.90;;;;;;4996214;28;20217;-66
2022/03/02 10:08:08;;;;;;;15.73;7.53;;;3.90;99.90;;;;;;4996353;28;20176;-66
2022/03/02 10:10:36;;;;;;;14.23;7.57;;;4.20;99.90;;;;;;4986737;28;20229;-65
2022/03/02 10:13:11;;;;;;;15.87;8.47;;;4.30;99.90;;;;;;4995914;28;20172;-66
2022/03/02 10:15:39;;;;;;;12.10;7.63;;;4.40;99.90;;;;;;4996914;28;20171;-65
2022/03/02 10:18:08;;;;;;;14.57;7.53;;;4.60;99.60;;;;;;4999134;28;20222;-65
2022/03/02 10:20:49;;;;;;;17.93;8.33;;;4.90;98.10;;;;;;5011782;28;20266;-66
2022/03/02 10:23:35;;;;;;;11.90;7.57;;;4.90;95.40;;;;;;5015048;28;20164;-67
2022/03/02 10:26:23;;;;;;;15.47;7.53;;;4.80;94.70;;;;;;5015317;28;20265;-65
2022/03/02 10:28:59;;;;;;;9.37;6.73;;;4.70;94.50;;;;;;5015188;28;20174;-66
2022/03/02 10:31:40;;;;;;;17.27;8.93;;;4.80;93.40;;;;;;5015398;28;20204;-66
2022/03/02 10:34:28;;;;;;;14.63;7.80;;;5.00;93.20;;;;;;5014424;28;20170;-65
2022/03/02 10:37:05;;;;;;;15.67;7.53;;;5.20;92.60;;;;;;5014928;28;20181;-66
2022/03/02 10:39:50;;;;;;;13.90;8.13;;;5.30;91.60;;;;;;5015164;28;20166;-65
2022/03/02 10:42:41;;;;;;;14.03;7.73;;;5.50;89.00;;;;;;5020424;28;20171;-65
2022/03/02 10:45:15;;;;;;;14.43;8.27;;;5.40;87.90;;;;;;5021853;28;20156;-69
2022/03/02 10:48:11;;;;;;;14.20;8.17;;;5.40;88.90;;;;;;5024283;28;20173;-66
2022/03/02 10:50:39;;;;;;;14.30;7.73;;;5.40;88.60;;;;;;5006428;28;20222;-66
2022/03/02 10:53:11;;;;;;;18.43;8.67;;;5.40;87.60;;;;;;5015393;28;20192;-65
2022/03/02 10:55:41;;;;;;;15.73;8.13;;;5.50;86.70;;;;;;5014864;28;20232;-66
2022/03/02 10:58:07;;;;;;;14.87;8.60;;;5.50;88.00;;;;;;5015037;28;20264;-67
2022/03/02 11:00:33;;;;;;;13.57;8.43;;;5.70;87.40;;;;;;5014880;28;20208;-66
2022/03/02 11:02:59;;;;;;;14.70;7.63;;;5.90;86.20;;;;;;5015182;28;20176;-66
2022/03/02 11:05:29;;;;;;;15.60;8.33;;;6.10;83.60;;;;;;5015520;28;20203;-66
2022/03/02 11:07:55;;;;;;;13.80;7.53;;;5.90;81.20;;;;;;5022566;28;20161;-68
2022/03/02 11:10:30;;;;;;;16.60;8.20;;;5.90;82.10;;;;;;5026271;28;20172;-71
2022/03/02 11:12:56;;;;;;;17.97;8.20;;;5.90;80.50;;;;;;5025513;28;20256;-65
2022/03/02 11:15:22;;;;;;;14.00;7.80;;;5.90;79.80;;;;;;5022389;28;20173;-70
2022/03/02 11:17:59;;;;;;;13.73;8.50;;;5.90;78.60;;;;;;5024254;28;20177;-65
2022/03/02 11:20:28;;;;;;;13.63;7.77;;;5.90;78.40;;;;;;5024869;28;20162;-64
2022/03/02 11:23:05;;;;;;;14.83;8.17;;;6.20;77.70;;;;;;5021330;28;20166;-67
2022/03/02 11:25:53;;;;;;;13.23;7.93;;;6.50;76.20;;;;;;5020014;28;20221;-68
2022/03/02 11:28:24;;;;;;;11.03;7.50;;;6.60;74.30;;;;;;5016188;28;20170;-67
2022/03/02 11:30:54;;;;;;;13.70;7.47;;;6.80;72.40;;;;;;5015545;28;20197;-65
2022/03/02 11:33:25;;;;;;;13.07;7.20;;;6.80;68.90;;;;;;5014910;28;20172;-66
2022/03/02 11:35:53;;;;;;;16.13;6.40;;;6.70;64.90;;;;;;5014207;28;20622;-66
2022/03/02 11:38:21;;;;;;;8.63;5.90;;;6.70;62.00;;;;;;5015042;28;20302;-64
2022/03/02 11:40:49;;;;;;;11.47;6.30;;;6.80;58.50;;;;;;5014588;28;20168;-64
2022/03/02 11:43:19;;;;;;;13.90;7.33;;;6.80;58.40;;;;;;5014393;28;20296;-66
2022/03/02 11:45:46;;;;;;;11.30;6.63;;;6.90;58.20;;;;;;5015263;28;20192;-65
2022/03/02 11:48:15;;;;;;;8.87;5.33;;;7.10;58.10;;;;;;5018418;28;20200;-65
2022/03/02 11:51:21;;;;;;;11.63;7.43;;;7.00;56.80;;;;;;5017918;28;20216;-65
2022/03/02 11:53:55;;;;;;;10.13;6.53;;;7.00;56.00;;;;;;5018317;28;20162;-66
2022/03/02 11:56:23;;;;;;;10.83;6.40;;;7.20;56.80;;;;;;5017464;28;20227;-66
2022/03/02 11:58:57;;;;;;;11.37;6.67;;;7.20;56.20;;;;;;5018164;28;20230;-66
2022/03/02 12:01:24;;;;;;;21.27;6.87;;;7.30;56.60;;;;;;5000687;28;20584;-65
2022/03/02 12:03:58;;;;;;;11.80;7.00;;;7.60;56.10;;;;;;5017704;28;20167;-66
2022/03/02 12:06:25;;;;;;;12.30;6.40;;;7.80;55.80;;;;;;5017446;28;20449;-65
2022/03/02 12:08:52;;;;;;;10.53;6.77;;;7.90;55.20;;;;;;5017947;28;20173;-66
2022/03/02 12:11:34;;;;;;;58.50;17.97;;;8.10;54.30;;;;;;5017726;28;20675;-66
2022/03/02 12:14:12;;;;;;;14.27;8.27;;;7.70;53.10;;;;;;5018051;28;20619;-67
2022/03/02 12:16:39;;;;;;;10.87;7.23;;;7.80;53.10;;;;;;5016598;28;20570;-66
2022/03/02 12:19:09;;;;;;;8.70;5.70;;;7.80;53.00;;;;;;5017822;28;20219;-68
2022/03/02 12:21:35;;;;;;;10.97;6.70;;;7.90;53.70;;;;;;5017908;28;20176;-66
2022/03/02 12:24:01;;;;;;;11.43;6.03;;;7.70;53.10;;;;;;5017776;28;20177;-67
2022/03/02 12:26:27;;;;;;;10.00;5.87;;;7.90;53.20;;;;;;5016677;28;20251;-66
2022/03/02 12:28:57;;;;;;;11.83;5.73;;;7.90;53.00;;;;;;5016789;28;20166;-66
2022/03/02 12:31:30;;;;;;;10.20;5.53;;;8.00;52.70;;;;;;5016658;28;20211;-65
2022/03/02 12:34:15;;;;;;;8.40;5.80;;;7.90;51.80;;;;;;5016658;28;20162;-65
2022/03/02 12:36:43;;;;;;;8.77;5.83;;;7.80;52.30;;;;;;5016936;28;20176;-65
2022/03/02 12:39:09;;;;;;;12.90;6.40;;;8.00;52.30;;;;;;5016392;28;20190;-65
2022/03/02 12:41:36;;;;;;;9.27;6.03;;;8.00;51.80;;;;;;5016759;28;20165;-66
2022/03/02 12:44:03;;;;;;;12.23;6.23;;;8.00;50.90;;;;;;5015998;28;20169;-66